sensor_id;sensor_type;location;lat;lon;timestamp;pressure;altitude;pressure_sealevel;temperature;humidity
36964;BME280;22878;48.616;35.326;2023-02-05T00:02:22;101131.17;;;-0.11;100.00
36964;BME280;22878;48.616;35.326;2023-02-05T00:04:48;101132.77;;;-0.11;100.00
36964;BME280;22878;48.616;35.326;2023-02-05T00:07:13;101133.92;;;-0.10;100.00
36964;BME280;22878;48.616;35.326;2023-02-05T00:09:39;101136.66;;;-0.09;100.00
36964;BME280;22878;48.616;35.326;2023-02-05T00:12:06;101132.90;;;-0.10;100.00
36964;BME280;22878;48.616;35.326;2023-02-05T00:14:32;101134.95;;;-0.11;100.00
36964;BME280;22878;48.616;35.326;2023-02-05T00:16:57;101132.88;;;-0.13;100.00
36964;BME280;22878;48.616;35.326;2023-02-05T00:19:23;101131.89;;;-0.14;100.00
36964;BME280;22878;48.616;35.326;2023-02-05T00:21:48;101132.35;;;-0.13;100.00
36964;BME280;22878;48.616;35.326;2023-02-05T00:24:14;101134.73;;;-0.12;100.00
36964;BME280;22878;48.616;35.326;2023-02-05T00:26:40;101132.91;;;-0.12;100.00
36964;BME280;22878;48.616;35.326;2023-02-05T00:29:06;101136.88;;;-0.11;100.00
36964;BME280;22878;48.616;35.326;2023-02-05T00:31:31;101133.62;;;-0.09;100.00
36964;BME280;22878;48.616;35.326;2023-02-05T00:33:57;101135.14;;;-0.07;100.00
36964;BME280;22878;48.616;35.326;2023-02-05T00:36:23;101136.91;;;-0.07;100.00
36964;BME280;22878;48.616;35.326;2023-02-05T00:38:49;101141.87;;;-0.07;100.00
36964;BME280;22878;48.616;35.326;2023-02-05T00:41:15;101143.24;;;-0.08;100.00
36964;BME280;22878;48.616;35.326;2023-02-05T00:43:41;101144.23;;;-0.10;100.00
36964;BME280;22878;48.616;35.326;2023-02-05T00:46:07;101147.97;;;-0.12;100.00
36964;BME280;22878;48.616;35.326;2023-02-05T00:48:33;101149.27;;;-0.13;100.00
36964;BME280;22878;48.616;35.326;2023-02-05T00:50:59;101152.42;;;-0.14;100.00
36964;BME280;22878;48.616;35.326;2023-02-05T00:53:25;101153.73;;;-0.13;100.00
36964;BME280;22878;48.616;35.326;2023-02-05T00:55:50;101155.00;;;-0.13;100.00
36964;BME280;22878;48.616;35.326;2023-02-05T00:58:16;101155.48;;;-0.14;100.00
36964;BME280;22878;48.616;35.326;2023-02-05T01:00:42;101154.75;;;-0.16;100.00
36964;BME280;22878;48.616;35.326;2023-02-05T01:03:08;101152.19;;;-0.18;100.00
36964;BME280;22878;48.616;35.326;2023-02-05T01:05:34;101155.97;;;-0.20;100.00
36964;BME280;22878;48.616;35.326;2023-02-05T01:08:01;101156.67;;;-0.22;100.00
36964;BME280;22878;48.616;35.326;2023-02-05T01:10:26;101157.42;;;-0.26;100.00
36964;BME280;22878;48.616;35.326;2023-02-05T01:12:52;101160.91;;;-0.28;100.00
36964;BME280;22878;48.616;35.326;2023-02-05T01:15:19;101163.84;;;-0.29;100.00
36964;BME280;22878;48.616;35.326;2023-02-05T01:17:44;101165.45;;;-0.30;100.00
36964;BME280;22878;48.616;35.326;2023-02-05T01:20:11;101163.77;;;-0.28;100.00
36964;BME280;22878;48.616;35.326;2023-02-05T01:22:37;101168.13;;;-0.28;100.00
36964;BME280;22878;48.616;35.326;2023-02-05T01:25:03;101166.82;;;-0.29;100.00
36964;BME280;22878;48.616;35.326;2023-02-05T01:27:31;101168.10;;;-0.29;100.00
36964;BME280;22878;48.616;35.326;2023-02-05T01:29:56;101167.24;;;-0.30;100.00
36964;BME280;22878;48.616;35.326;2023-02-05T01:32:22;101166.63;;;-0.30;100.00
36964;BME280;22878;48.616;35.326;2023-02-05T01:34:48;101167.42;;;-0.31;100.00
36964;BME280;22878;48.616;35.326;2023-02-05T01:37:13;101168.72;;;-0.31;100.00
36964;BME280;22878;48.616;35.326;2023-02-05T01:39:38;101170.52;;;-0.32;100.00
36964;BME280;22878;48.616;35.326;2023-02-05T01:42:18;101174.98;;;-0.32;100.00
36964;BME280;22878;48.616;35.326;2023-02-05T01:47:59;101182.77;;;-0.32;100.00
36964;BME280;22878;48.616;35.326;2023-02-05T01:52:58;101182.73;;;-0.34;100.00
36964;BME280;22878;48.616;35.326;2023-02-05T01:55:24;101183.48;;;-0.33;100.00
36964;BME280;22878;48.616;35.326;2023-02-05T01:57:51;101182.00;;;-0.32;100.00
36964;BME280;22878;48.616;35.326;2023-02-05T02:00:17;101184.02;;;-0.33;100.00
36964;BME280;22878;48.616;35.326;2023-02-05T02:02:43;101185.66;;;-0.33;100.00
36964;BME280;22878;48.616;35.326;2023-02-05T02:05:11;101186.77;;;-0.35;100.00
36964;BME280;22878;48.616;35.326;2023-02-05T02:07:37;101187.20;;;-0.39;100.00
36964;BME280;22878;48.616;35.326;2023-02-05T02:10:04;101187.60;;;-0.41;100.00
36964;BME280;22878;48.616;35.326;2023-02-05T02:12:32;101189.55;;;-0.42;100.00
36964;BME280;22878;48.616;35.326;2023-02-05T02:15:03;101189.46;;;-0.43;100.00
36964;BME280;22878;48.616;35.326;2023-02-05T02:17:34;101191.02;;;-0.44;100.00
36964;BME280;22878;48.616;35.326;2023-02-05T02:20:04;101190.63;;;-0.46;100.00
36964;BME280;22878;48.616;35.326;2023-02-05T02:31:03;101197.30;;;-0.50;100.00
36964;BME280;22878;48.616;35.326;2023-02-05T02:39:02;101202.05;;;-0.56;100.00
36964;BME280;22878;48.616;35.326;2023-02-05T02:41:53;101202.27;;;-0.58;100.00
36964;BME280;22878;48.616;35.326;2023-02-05T02:44:36;101207.83;;;-0.59;100.00
36964;BME280;22878;48.616;35.326;2023-02-05T02:47:17;101208.43;;;-0.61;100.00
36964;BME280;22878;48.616;35.326;2023-02-05T02:50:06;101209.83;;;-0.63;100.00
36964;BME280;22878;48.616;35.326;2023-02-05T02:52:38;101207.64;;;-0.65;100.00
36964;BME280;22878;48.616;35.326;2023-02-05T02:55:09;101208.45;;;-0.68;100.00
36964;BME280;22878;48.616;35.326;2023-02-05T02:57:37;101209.16;;;-0.71;100.00
36964;BME280;22878;48.616;35.326;2023-02-05T03:00:09;101209.76;;;-0.75;100.00
36964;BME280;22878;48.616;35.326;2023-02-05T03:02:58;101208.56;;;-0.80;100.00
36964;BME280;22878;48.616;35.326;2023-02-05T03:05:26;101208.86;;;-0.83;100.00
36964;BME280;22878;48.616;35.326;2023-02-05T03:07:59;101212.04;;;-0.83;100.00
36964;BME280;22878;48.616;35.326;2023-02-05T03:10:41;101212.61;;;-0.86;100.00
36964;BME280;22878;48.616;35.326;2023-02-05T03:13:10;101211.77;;;-0.88;100.00
36964;BME280;22878;48.616;35.326;2023-02-05T03:15:40;101213.20;;;-0.90;100.00
36964;BME280;22878;48.616;35.326;2023-02-05T03:18:06;101211.40;;;-0.95;100.00
36964;BME280;22878;48.616;35.326;2023-02-05T03:20:37;101215.89;;;-1.00;100.00
36964;BME280;22878;48.616;35.326;2023-02-05T03:23:05;101215.73;;;-1.06;100.00
36964;BME280;22878;48.616;35.326;2023-02-05T03:25:31;101219.00;;;-1.11;100.00
36964;BME280;22878;48.616;35.326;2023-02-05T03:27:57;101221.61;;;-1.12;100.00
36964;BME280;22878;48.616;35.326;2023-02-05T03:30:28;101220.66;;;-1.13;100.00
36964;BME280;22878;48.616;35.326;2023-02-05T03:36:01;101226.06;;;-1.19;100.00
36964;BME280;22878;48.616;35.326;2023-02-05T03:41:33;101224.64;;;-1.22;100.00
36964;BME280;22878;48.616;35.326;2023-02-05T03:55:47;101229.71;;;-1.30;100.00
36964;BME280;22878;48.616;35.326;2023-02-05T03:58:25;101235.27;;;-1.31;100.00
36964;BME280;22878;48.616;35.326;2023-02-05T04:00:53;101234.83;;;-1.36;100.00
36964;BME280;22878;48.616;35.326;2023-02-05T04:03:19;101234.59;;;-1.41;100.00
36964;BME280;22878;48.616;35.326;2023-02-05T04:05:44;101234.02;;;-1.47;100.00
36964;BME280;22878;48.616;35.326;2023-02-05T04:08:10;101233.44;;;-1.53;100.00
36964;BME280;22878;48.616;35.326;2023-02-05T04:10:35;101236.73;;;-1.59;100.00
36964;BME280;22878;48.616;35.326;2023-02-05T04:13:01;101237.86;;;-1.63;100.00
36964;BME280;22878;48.616;35.326;2023-02-05T04:15:26;101247.10;;;-1.65;100.00
36964;BME280;22878;48.616;35.326;2023-02-05T04:17:52;101249.83;;;-1.68;100.00
36964;BME280;22878;48.616;35.326;2023-02-05T04:20:17;101246.70;;;-1.68;100.00
36964;BME280;22878;48.616;35.326;2023-02-05T04:22:43;101251.25;;;-1.71;100.00
36964;BME280;22878;48.616;35.326;2023-02-05T04:25:08;101250.16;;;-1.74;100.00
36964;BME280;22878;48.616;35.326;2023-02-05T04:27:34;101252.77;;;-1.75;100.00
36964;BME280;22878;48.616;35.326;2023-02-05T04:29:59;101251.84;;;-1.75;100.00
36964;BME280;22878;48.616;35.326;2023-02-05T04:32:25;101252.95;;;-1.74;100.00
36964;BME280;22878;48.616;35.326;2023-02-05T04:34:50;101253.14;;;-1.72;100.00
36964;BME280;22878;48.616;35.326;2023-02-05T04:37:16;101254.11;;;-1.65;100.00
36964;BME280;22878;48.616;35.326;2023-02-05T04:39:41;101259.09;;;-1.62;100.00
36964;BME280;22878;48.616;35.326;2023-02-05T04:42:07;101260.29;;;-1.60;100.00
36964;BME280;22878;48.616;35.326;2023-02-05T04:44:32;101265.15;;;-1.58;100.00
36964;BME280;22878;48.616;35.326;2023-02-05T04:46:58;101266.60;;;-1.55;100.00
36964;BME280;22878;48.616;35.326;2023-02-05T04:49:23;101269.73;;;-1.56;100.00
36964;BME280;22878;48.616;35.326;2023-02-05T04:51:49;101271.98;;;-1.54;100.00
36964;BME280;22878;48.616;35.326;2023-02-05T04:54:14;101272.45;;;-1.54;100.00
36964;BME280;22878;48.616;35.326;2023-02-05T04:56:40;101275.42;;;-1.50;100.00
36964;BME280;22878;48.616;35.326;2023-02-05T04:59:06;101278.99;;;-1.49;100.00
36964;BME280;22878;48.616;35.326;2023-02-05T05:01:31;101280.33;;;-1.47;100.00
36964;BME280;22878;48.616;35.326;2023-02-05T05:03:57;101284.12;;;-1.44;100.00
36964;BME280;22878;48.616;35.326;2023-02-05T05:06:22;101285.84;;;-1.42;100.00
36964;BME280;22878;48.616;35.326;2023-02-05T05:08:48;101289.52;;;-1.39;100.00
36964;BME280;22878;48.616;35.326;2023-02-05T05:11:16;101289.02;;;-1.34;100.00
36964;BME280;22878;48.616;35.326;2023-02-05T05:13:42;101289.42;;;-1.28;100.00
36964;BME280;22878;48.616;35.326;2023-02-05T05:16:09;101290.81;;;-1.23;100.00
36964;BME280;22878;48.616;35.326;2023-02-05T05:18:36;101293.66;;;-1.18;100.00
36964;BME280;22878;48.616;35.326;2023-02-05T05:21:02;101294.02;;;-1.13;100.00
36964;BME280;22878;48.616;35.326;2023-02-05T05:23:28;101296.79;;;-1.08;100.00
36964;BME280;22878;48.616;35.326;2023-02-05T05:25:54;101296.98;;;-1.05;100.00
36964;BME280;22878;48.616;35.326;2023-02-05T05:28:19;101298.55;;;-1.03;100.00
36964;BME280;22878;48.616;35.326;2023-02-05T05:30:46;101300.30;;;-1.00;100.00
36964;BME280;22878;48.616;35.326;2023-02-05T05:33:12;101303.27;;;-0.96;100.00
36964;BME280;22878;48.616;35.326;2023-02-05T05:35:38;101301.48;;;-0.94;100.00
36964;BME280;22878;48.616;35.326;2023-02-05T05:38:04;101304.06;;;-0.92;100.00
36964;BME280;22878;48.616;35.326;2023-02-05T05:40:30;101306.10;;;-0.90;100.00
36964;BME280;22878;48.616;35.326;2023-02-05T05:43:16;101312.05;;;-0.86;100.00
36964;BME280;22878;48.616;35.326;2023-02-05T05:46:01;101318.23;;;-0.81;100.00
36964;BME280;22878;48.616;35.326;2023-02-05T05:48:27;101319.22;;;-0.80;100.00
36964;BME280;22878;48.616;35.326;2023-02-05T05:50:52;101320.52;;;-0.78;100.00
36964;BME280;22878;48.616;35.326;2023-02-05T05:53:19;101324.20;;;-0.72;100.00
36964;BME280;22878;48.616;35.326;2023-02-05T05:55:48;101325.42;;;-0.68;100.00
36964;BME280;22878;48.616;35.326;2023-02-05T05:58:13;101328.84;;;-0.67;100.00
36964;BME280;22878;48.616;35.326;2023-02-05T06:00:39;101326.15;;;-0.68;100.00
36964;BME280;22878;48.616;35.326;2023-02-05T06:03:05;101331.65;;;-0.66;100.00
36964;BME280;22878;48.616;35.326;2023-02-05T06:05:32;101334.98;;;-0.65;100.00
36964;BME280;22878;48.616;35.326;2023-02-05T06:07:58;101338.64;;;-0.61;100.00
36964;BME280;22878;48.616;35.326;2023-02-05T06:10:24;101340.40;;;-0.56;100.00
36964;BME280;22878;48.616;35.326;2023-02-05T06:12:49;101345.42;;;-0.48;100.00
36964;BME280;22878;48.616;35.326;2023-02-05T06:15:17;101347.84;;;-0.40;100.00
36964;BME280;22878;48.616;35.326;2023-02-05T06:17:43;101347.93;;;-0.33;100.00
36964;BME280;22878;48.616;35.326;2023-02-05T06:20:09;101349.86;;;-0.27;100.00
36964;BME280;22878;48.616;35.326;2023-02-05T06:22:35;101349.78;;;-0.21;100.00
36964;BME280;22878;48.616;35.326;2023-02-05T06:25:00;101356.54;;;-0.12;100.00
36964;BME280;22878;48.616;35.326;2023-02-05T06:27:27;101352.41;;;-0.06;100.00
36964;BME280;22878;48.616;35.326;2023-02-05T06:29:52;101353.86;;;-0.04;100.00
36964;BME280;22878;48.616;35.326;2023-02-05T06:32:18;101356.53;;;-0.01;100.00
36964;BME280;22878;48.616;35.326;2023-02-05T06:34:43;101357.42;;;0.01;100.00
36964;BME280;22878;48.616;35.326;2023-02-05T06:37:09;101365.24;;;0.05;100.00
36964;BME280;22878;48.616;35.326;2023-02-05T06:39:35;101370.96;;;0.09;100.00
36964;BME280;22878;48.616;35.326;2023-02-05T06:42:00;101371.93;;;0.08;100.00
36964;BME280;22878;48.616;35.326;2023-02-05T06:44:26;101372.37;;;0.06;100.00
36964;BME280;22878;48.616;35.326;2023-02-05T06:46:51;101372.09;;;0.04;100.00
36964;BME280;22878;48.616;35.326;2023-02-05T06:49:17;101374.65;;;-0.00;100.00
36964;BME280;22878;48.616;35.326;2023-02-05T06:51:43;101376.34;;;0.01;100.00
36964;BME280;22878;48.616;35.326;2023-02-05T06:54:08;101381.13;;;0.04;100.00
36964;BME280;22878;48.616;35.326;2023-02-05T06:56:34;101380.95;;;0.03;100.00
36964;BME280;22878;48.616;35.326;2023-02-05T06:58:59;101377.60;;;0.08;100.00
36964;BME280;22878;48.616;35.326;2023-02-05T07:01:25;101378.59;;;0.15;100.00
36964;BME280;22878;48.616;35.326;2023-02-05T07:03:50;101381.10;;;0.19;100.00
36964;BME280;22878;48.616;35.326;2023-02-05T07:06:23;101377.04;;;0.22;100.00
36964;BME280;22878;48.616;35.326;2023-02-05T07:08:50;101375.36;;;0.33;100.00
36964;BME280;22878;48.616;35.326;2023-02-05T07:11:16;101379.61;;;0.39;100.00
36964;BME280;22878;48.616;35.326;2023-02-05T07:13:41;101380.00;;;0.48;100.00
36964;BME280;22878;48.616;35.326;2023-02-05T07:16:07;101380.69;;;0.52;100.00
36964;BME280;22878;48.616;35.326;2023-02-05T07:18:33;101383.73;;;0.55;100.00
36964;BME280;22878;48.616;35.326;2023-02-05T07:20:59;101381.33;;;0.58;100.00
36964;BME280;22878;48.616;35.326;2023-02-05T07:23:24;101378.95;;;0.61;100.00
36964;BME280;22878;48.616;35.326;2023-02-05T07:25:50;101382.06;;;0.70;100.00
36964;BME280;22878;48.616;35.326;2023-02-05T07:28:16;101381.09;;;0.65;100.00
36964;BME280;22878;48.616;35.326;2023-02-05T07:30:41;101382.08;;;0.67;100.00
36964;BME280;22878;48.616;35.326;2023-02-05T07:33:07;101382.24;;;0.73;100.00
36964;BME280;22878;48.616;35.326;2023-02-05T07:35:36;101381.17;;;0.81;100.00
36964;BME280;22878;48.616;35.326;2023-02-05T07:38:02;101379.96;;;0.87;100.00
36964;BME280;22878;48.616;35.326;2023-02-05T07:40:28;101378.92;;;0.93;100.00
36964;BME280;22878;48.616;35.326;2023-02-05T07:42:53;101377.00;;;0.93;100.00
36964;BME280;22878;48.616;35.326;2023-02-05T07:45:19;101380.20;;;0.89;100.00
36964;BME280;22878;48.616;35.326;2023-02-05T07:47:44;101382.52;;;0.95;100.00
36964;BME280;22878;48.616;35.326;2023-02-05T07:50:10;101383.10;;;1.00;100.00
36964;BME280;22878;48.616;35.326;2023-02-05T07:52:35;101384.02;;;0.99;100.00
36964;BME280;22878;48.616;35.326;2023-02-05T07:55:01;101385.55;;;1.07;100.00
36964;BME280;22878;48.616;35.326;2023-02-05T07:57:26;101387.23;;;1.26;100.00
36964;BME280;22878;48.616;35.326;2023-02-05T07:59:52;101386.38;;;1.32;100.00
36964;BME280;22878;48.616;35.326;2023-02-05T08:02:17;101381.78;;;1.31;100.00
36964;BME280;22878;48.616;35.326;2023-02-05T08:04:43;101387.44;;;1.25;100.00
36964;BME280;22878;48.616;35.326;2023-02-05T08:07:12;101388.73;;;1.21;100.00
36964;BME280;22878;48.616;35.326;2023-02-05T08:09:38;101391.72;;;1.29;100.00
36964;BME280;22878;48.616;35.326;2023-02-05T08:12:04;101393.69;;;1.37;100.00
36964;BME280;22878;48.616;35.326;2023-02-05T08:14:30;101395.70;;;1.45;100.00
36964;BME280;22878;48.616;35.326;2023-02-05T08:16:56;101395.70;;;1.63;100.00
36964;BME280;22878;48.616;35.326;2023-02-05T08:19:23;101395.21;;;1.72;100.00
36964;BME280;22878;48.616;35.326;2023-02-05T08:21:49;101396.22;;;1.73;100.00
36964;BME280;22878;48.616;35.326;2023-02-05T08:24:15;101396.21;;;1.78;100.00
36964;BME280;22878;48.616;35.326;2023-02-05T08:26:41;101401.14;;;1.89;100.00
36964;BME280;22878;48.616;35.326;2023-02-05T08:29:07;101403.66;;;1.96;100.00
36964;BME280;22878;48.616;35.326;2023-02-05T08:31:33;101405.02;;;1.99;100.00
36964;BME280;22878;48.616;35.326;2023-02-05T08:33:59;101403.66;;;2.05;100.00
36964;BME280;22878;48.616;35.326;2023-02-05T08:36:25;101400.64;;;2.06;100.00
36964;BME280;22878;48.616;35.326;2023-02-05T08:38:50;101400.17;;;2.07;100.00
36964;BME280;22878;48.616;35.326;2023-02-05T08:41:16;101403.16;;;2.19;100.00
36964;BME280;22878;48.616;35.326;2023-02-05T08:43:44;101405.20;;;2.22;100.00
36964;BME280;22878;48.616;35.326;2023-02-05T08:46:12;101404.28;;;2.34;100.00
36964;BME280;22878;48.616;35.326;2023-02-05T08:48:38;101400.08;;;2.51;100.00
36964;BME280;22878;48.616;35.326;2023-02-05T08:51:03;101403.50;;;2.63;100.00
36964;BME280;22878;48.616;35.326;2023-02-05T08:53:32;101406.36;;;2.70;100.00
36964;BME280;22878;48.616;35.326;2023-02-05T08:56:00;101407.89;;;2.76;100.00
36964;BME280;22878;48.616;35.326;2023-02-05T08:58:26;101408.35;;;2.89;100.00
36964;BME280;22878;48.616;35.326;2023-02-05T09:00:59;101408.64;;;2.95;100.00
36964;BME280;22878;48.616;35.326;2023-02-05T09:03:24;101407.39;;;2.87;100.00
36964;BME280;22878;48.616;35.326;2023-02-05T09:05:51;101409.66;;;2.80;100.00
36964;BME280;22878;48.616;35.326;2023-02-05T09:08:16;101409.98;;;2.81;100.00
36964;BME280;22878;48.616;35.326;2023-02-05T09:10:43;101409.31;;;2.89;100.00
36964;BME280;22878;48.616;35.326;2023-02-05T09:13:09;101407.00;;;2.84;100.00
36964;BME280;22878;48.616;35.326;2023-02-05T09:15:42;101408.82;;;2.87;100.00
36964;BME280;22878;48.616;35.326;2023-02-05T09:18:08;101405.84;;;2.84;100.00
36964;BME280;22878;48.616;35.326;2023-02-05T09:20:33;101402.31;;;2.90;100.00
36964;BME280;22878;48.616;35.326;2023-02-05T09:22:59;101405.39;;;2.91;100.00
36964;BME280;22878;48.616;35.326;2023-02-05T09:25:25;101407.70;;;2.81;100.00
36964;BME280;22878;48.616;35.326;2023-02-05T09:27:52;101411.11;;;2.53;100.00
36964;BME280;22878;48.616;35.326;2023-02-05T09:30:17;101415.17;;;2.37;100.00
36964;BME280;22878;48.616;35.326;2023-02-05T09:32:43;101416.55;;;2.14;100.00
36964;BME280;22878;48.616;35.326;2023-02-05T09:35:09;101418.90;;;2.05;100.00
36964;BME280;22878;48.616;35.326;2023-02-05T09:37:34;101422.49;;;1.87;100.00
36964;BME280;22878;48.616;35.326;2023-02-05T09:40:00;101422.98;;;1.63;100.00
36964;BME280;22878;48.616;35.326;2023-02-05T09:42:27;101427.00;;;1.36;100.00
36964;BME280;22878;48.616;35.326;2023-02-05T09:47:40;101422.52;;;1.20;100.00
36964;BME280;22878;48.616;35.326;2023-02-05T09:50:18;101426.10;;;1.21;100.00
36964;BME280;22878;48.616;35.326;2023-02-05T09:52:50;101430.27;;;1.34;100.00
36964;BME280;22878;48.616;35.326;2023-02-05T09:55:25;101430.25;;;1.40;100.00
36964;BME280;22878;48.616;35.326;2023-02-05T09:57:53;101427.66;;;1.46;100.00
36964;BME280;22878;48.616;35.326;2023-02-05T10:00:27;101430.04;;;1.48;100.00
36964;BME280;22878;48.616;35.326;2023-02-05T10:08:25;101424.23;;;1.72;100.00
36964;BME280;22878;48.616;35.326;2023-02-05T10:10:54;101424.44;;;1.75;100.00
36964;BME280;22878;48.616;35.326;2023-02-05T10:13:48;101422.73;;;1.94;100.00
36964;BME280;22878;48.616;35.326;2023-02-05T10:21:54;101421.92;;;1.81;100.00
36964;BME280;22878;48.616;35.326;2023-02-05T10:30:02;101426.20;;;1.82;100.00
36964;BME280;22878;48.616;35.326;2023-02-05T10:37:51;101430.27;;;1.77;100.00
36964;BME280;22878;48.616;35.326;2023-02-05T10:40:21;101429.46;;;1.91;100.00
36964;BME280;22878;48.616;35.326;2023-02-05T10:45:43;101429.19;;;1.97;100.00
36964;BME280;22878;48.616;35.326;2023-02-05T10:51:04;101429.36;;;1.98;100.00
36964;BME280;22878;48.616;35.326;2023-02-05T10:53:30;101426.35;;;2.11;100.00
36964;BME280;22878;48.616;35.326;2023-02-05T10:55:58;101428.84;;;2.26;100.00
36964;BME280;22878;48.616;35.326;2023-02-05T11:01:02;101427.92;;;2.77;100.00
36964;BME280;22878;48.616;35.326;2023-02-05T11:03:27;101422.00;;;2.98;100.00
36964;BME280;22878;48.616;35.326;2023-02-05T11:05:53;101423.02;;;3.22;100.00
36964;BME280;22878;48.616;35.326;2023-02-05T11:08:36;101426.23;;;3.32;100.00
36964;BME280;22878;48.616;35.326;2023-02-05T11:11:03;101422.26;;;3.21;100.00
36964;BME280;22878;48.616;35.326;2023-02-05T11:13:30;101420.94;;;3.17;100.00
36964;BME280;22878;48.616;35.326;2023-02-05T11:16:01;101420.85;;;3.30;100.00
36964;BME280;22878;48.616;35.326;2023-02-05T11:18:32;101419.37;;;3.53;100.00
36964;BME280;22878;48.616;35.326;2023-02-05T11:21:02;101417.23;;;3.53;100.00
36964;BME280;22878;48.616;35.326;2023-02-05T11:23:29;101422.39;;;3.38;100.00
36964;BME280;22878;48.616;35.326;2023-02-05T11:26:00;101424.06;;;3.24;100.00
36964;BME280;22878;48.616;35.326;2023-02-05T11:28:33;101429.27;;;3.02;100.00
36964;BME280;22878;48.616;35.326;2023-02-05T11:31:26;101433.57;;;2.77;100.00
36964;BME280;22878;48.616;35.326;2023-02-05T11:36:32;101431.11;;;2.26;100.00
36964;BME280;22878;48.616;35.326;2023-02-05T11:38:59;101433.90;;;2.29;100.00
36964;BME280;22878;48.616;35.326;2023-02-05T11:41:34;101437.58;;;2.36;100.00
36964;BME280;22878;48.616;35.326;2023-02-05T11:44:23;101434.80;;;2.42;100.00
36964;BME280;22878;48.616;35.326;2023-02-05T11:46:50;101431.85;;;2.70;100.00
36964;BME280;22878;48.616;35.326;2023-02-05T11:49:34;101434.51;;;2.87;100.00
36964;BME280;22878;48.616;35.326;2023-02-05T11:52:07;101436.80;;;3.02;100.00
36964;BME280;22878;48.616;35.326;2023-02-05T11:54:33;101442.88;;;3.03;100.00
36964;BME280;22878;48.616;35.326;2023-02-05T11:57:23;101440.23;;;2.87;100.00
36964;BME280;22878;48.616;35.326;2023-02-05T12:13:46;101455.36;;;2.21;100.00
36964;BME280;22878;48.616;35.326;2023-02-05T12:23:38;101464.23;;;1.61;100.00
36964;BME280;22878;48.616;35.326;2023-02-05T12:26:29;101462.42;;;1.62;100.00
36964;BME280;22878;48.616;35.326;2023-02-05T12:41:19;101468.73;;;1.49;100.00
36964;BME280;22878;48.616;35.326;2023-02-05T12:43:48;101465.16;;;1.54;100.00
36964;BME280;22878;48.616;35.326;2023-02-05T12:46:49;101459.28;;;1.57;100.00
36964;BME280;22878;48.616;35.326;2023-02-05T12:49:21;101456.79;;;1.65;100.00
36964;BME280;22878;48.616;35.326;2023-02-05T12:54:50;101463.03;;;1.77;100.00
36964;BME280;22878;48.616;35.326;2023-02-05T12:57:24;101459.80;;;1.68;100.00
36964;BME280;22878;48.616;35.326;2023-02-05T13:00:01;101465.35;;;1.61;100.00
36964;BME280;22878;48.616;35.326;2023-02-05T13:02:39;101470.06;;;1.57;100.00
36964;BME280;22878;48.616;35.326;2023-02-05T13:05:23;101473.96;;;1.51;100.00
36964;BME280;22878;48.616;35.326;2023-02-05T13:07:56;101473.73;;;1.45;100.00
36964;BME280;22878;48.616;35.326;2023-02-05T13:10:30;101476.52;;;1.38;100.00
36964;BME280;22878;48.616;35.326;2023-02-05T13:13:01;101480.94;;;1.37;100.00
36964;BME280;22878;48.616;35.326;2023-02-05T13:16:01;101480.64;;;1.38;100.00
36964;BME280;22878;48.616;35.326;2023-02-05T13:18:33;101486.60;;;1.40;100.00
36964;BME280;22878;48.616;35.326;2023-02-05T13:21:04;101489.58;;;1.35;100.00
36964;BME280;22878;48.616;35.326;2023-02-05T13:23:49;101497.98;;;1.28;100.00
36964;BME280;22878;48.616;35.326;2023-02-05T13:26:43;101500.85;;;1.17;100.00
36964;BME280;22878;48.616;35.326;2023-02-05T13:29:34;101502.42;;;1.05;100.00
36964;BME280;22878;48.616;35.326;2023-02-05T13:32:12;101504.38;;;0.97;100.00
36964;BME280;22878;48.616;35.326;2023-02-05T13:34:40;101507.92;;;0.91;100.00
36964;BME280;22878;48.616;35.326;2023-02-05T13:37:15;101510.61;;;0.78;100.00
36964;BME280;22878;48.616;35.326;2023-02-05T13:50:59;101510.25;;;0.56;100.00
36964;BME280;22878;48.616;35.326;2023-02-05T14:01:58;101513.56;;;0.47;100.00
36964;BME280;22878;48.616;35.326;2023-02-05T14:07:21;101523.55;;;0.36;100.00
36964;BME280;22878;48.616;35.326;2023-02-05T14:09:51;101525.30;;;0.33;100.00
36964;BME280;22878;48.616;35.326;2023-02-05T14:12:34;101525.91;;;0.33;100.00
36964;BME280;22878;48.616;35.326;2023-02-05T14:22:49;101528.52;;;0.23;100.00
36964;BME280;22878;48.616;35.326;2023-02-05T14:28:21;101528.42;;;0.21;100.00
36964;BME280;22878;48.616;35.326;2023-02-05T14:30:59;101527.73;;;0.18;100.00
36964;BME280;22878;48.616;35.326;2023-02-05T14:33:36;101534.13;;;0.11;100.00
36964;BME280;22878;48.616;35.326;2023-02-05T14:41:18;101538.88;;;-0.07;100.00
36964;BME280;22878;48.616;35.326;2023-02-05T14:43:53;101534.26;;;-0.16;100.00
36964;BME280;22878;48.616;35.326;2023-02-05T14:46:23;101532.60;;;-0.22;100.00
36964;BME280;22878;48.616;35.326;2023-02-05T14:48:53;101533.95;;;-0.28;100.00
36964;BME280;22878;48.616;35.326;2023-02-05T14:51:38;101540.14;;;-0.33;100.00
36964;BME280;22878;48.616;35.326;2023-02-05T14:54:19;101538.88;;;-0.39;100.00
36964;BME280;22878;48.616;35.326;2023-02-05T14:56:49;101541.19;;;-0.41;100.00
36964;BME280;22878;48.616;35.326;2023-02-05T14:59:26;101545.63;;;-0.45;100.00
36964;BME280;22878;48.616;35.326;2023-02-05T15:01:55;101546.04;;;-0.45;100.00
36964;BME280;22878;48.616;35.326;2023-02-05T15:04:43;101549.92;;;-0.45;100.00
36964;BME280;22878;48.616;35.326;2023-02-05T15:07:17;101547.30;;;-0.51;100.00
36964;BME280;22878;48.616;35.326;2023-02-05T15:17:55;101563.52;;;-0.57;100.00
36964;BME280;22878;48.616;35.326;2023-02-05T15:20:26;101560.11;;;-0.58;100.00
36964;BME280;22878;48.616;35.326;2023-02-05T15:23:02;101568.98;;;-0.59;100.00